Etusivu
METAR-TAF:

METAR-TAF

Lentoasemat :

Sheldon Municipal Airport

Sheldon, Iowa, Yhdysvallat

Leveyspiiri: 43-13N, Pituuspiiri: 095-50W, korkeus merenpinnasta: 432 m

Tämänhetkinen sää

Tämä raportti tehtiin 24 minuuttia sitten, kello 11.55 UTC
Tuuli 7 kn etelästä/lounaasta
Lämpötila -3°C
Kosteus 68%
Ilmanpaine 1010 hPa
Näkyvyys: 16.1 km
Pilvistä 4700 ft:n korkeudessa

METAR: KSHL 131155Z AUTO 20007KT 10SM OVC047 M03/M08 A2982 RMK AO2

Aika: 06:19 (12:19 UTC)


TAF: puuttuu

Säähavainnot ja -ennusteet yli 4000 lentoasemalta (METAR- ja TAF-raportit).

Käytössä olevat sääasemat on merkitty karttaan keltaisilla ja punaisilla pisteillä.

Aseta hiiri pisteen päälle nähdäksesi sääaseman nimen.

Klikkaa sitten nähdäksesi säähavainnot ja -ennusteet.

Kartan vaihtaminen: klikkaa mustalla rastilla varustettuja vihreitä pisteitä, niin voit zoomata sisään; viivalla varustettua vihreää pistettä, niin voit zoomata ulos tai vihreitä nuolia, niin pääset viereisille kartoille.


METAR-TAF: